Time;durP1;ratioP1;P1;durP2;ratioP2;P2;SDS_P1;SDS_P2;PMS_P1;PMS_P2;Temp;Humidity;BMP_temperature;BMP_pressure;BME280_temperature;BME280_humidity;BME280_pressure;Samples;Min_cycle;Max_cycle;Signal;HPM_P1;HPM_P2
2023/12/28 00:00:18;;;;;;;2.90;1.60;;;;;;;;;;5072203;28;20192;-49
2023/12/28 00:02:44;;;;;;;3.30;1.90;;;;;;;;;;5072509;28;20261;-49
2023/12/28 00:05:10;;;;;;;2.87;1.70;;;;;;;;;;5072155;28;20199;-50
2023/12/28 00:07:36;;;;;;;1.50;1.40;;;;;;;;;;5038713;28;20228;-50
2023/12/28 00:10:02;;;;;;;2.70;1.60;;;;;;;;;;5032626;28;20223;-50
2023/12/28 00:12:28;;;;;;;2.27;1.43;;;;;;;;;;5032257;28;20251;-49
2023/12/28 00:14:54;;;;;;;2.80;1.50;;;;;;;;;;5055295;28;20216;-50
2023/12/28 00:17:21;;;;;;;2.10;1.70;;;;;;;;;;5071707;28;20705;-49
2023/12/28 00:19:47;;;;;;;3.20;1.60;;;;;;;;;;5072059;28;20548;-51
2023/12/28 00:22:13;;;;;;;2.57;1.70;;;;;;;;;;5072205;28;20200;-49
2023/12/28 00:24:39;;;;;;;2.70;1.70;;;;;;;;;;5071811;28;20287;-48
2023/12/28 00:27:05;;;;;;;6.57;2.00;;;;;;;;;;5071804;28;20227;-49
2023/12/28 00:29:32;;;;;;;2.20;1.77;;;;;;;;;;5072014;28;20235;-50
2023/12/28 00:31:58;;;;;;;1.97;1.50;;;;;;;;;;5071819;28;20713;-49
2023/12/28 00:34:25;;;;;;;3.80;2.07;;;;;;;;;;5072097;28;20219;-50
2023/12/28 00:36:51;;;;;;;2.43;1.80;;;;;;;;;;5071684;28;20195;-50
2023/12/28 00:39:17;;;;;;;2.97;1.87;;;;;;;;;;5071590;28;20195;-50
2023/12/28 00:41:43;;;;;;;1.90;1.73;;;;;;;;;;5072000;28;20249;-50
2023/12/28 00:44:09;;;;;;;3.40;2.03;;;;;;;;;;5071232;28;20188;-49
2023/12/28 00:46:35;;;;;;;2.60;1.97;;;;;;;;;;5064745;28;20232;-50
2023/12/28 00:49:01;;;;;;;1.87;1.57;;;;;;;;;;5051530;28;20195;-50
2023/12/28 00:51:29;;;;;;;4.03;1.83;;;;;;;;;;5043943;28;20570;-49
2023/12/28 00:53:55;;;;;;;5.03;1.77;;;;;;;;;;5046734;28;20690;-49
2023/12/28 00:56:21;;;;;;;4.60;2.20;;;;;;;;;;5051585;28;20200;-50
2023/12/28 00:58:47;;;;;;;2.20;2.00;;;;;;;;;;5051829;28;20203;-50
2023/12/28 01:01:13;;;;;;;3.30;2.10;;;;;;;;;;5051172;28;20200;-49
2023/12/28 01:03:39;;;;;;;2.33;1.90;;;;;;;;;;5051709;28;20535;-49
2023/12/28 01:06:05;;;;;;;4.03;2.13;;;;;;;;;;5055209;28;20253;-50
2023/12/28 01:08:35;;;;;;;3.10;2.23;;;;;;;;;;5066425;28;20203;-49
2023/12/28 01:11:02;;;;;;;2.40;1.70;;;;;;;;;;5046568;28;20204;-49
2023/12/28 01:13:28;;;;;;;2.93;1.97;;;;;;;;;;5049756;28;20224;-49
2023/12/28 01:15:54;;;;;;;2.37;2.17;;;;;;;;;;5049680;28;20200;-49
2023/12/28 01:18:20;;;;;;;3.30;2.30;;;;;;;;;;5050915;28;20224;-49
2023/12/28 01:20:46;;;;;;;2.10;1.90;;;;;;;;;;5051589;28;20204;-49
2023/12/28 01:23:12;;;;;;;2.10;1.90;;;;;;;;;;5051355;28;20202;-48
2023/12/28 01:25:39;;;;;;;2.50;1.80;;;;;;;;;;5051210;28;20535;-49
2023/12/28 01:28:05;;;;;;;3.63;2.40;;;;;;;;;;5051358;28;20205;-49
2023/12/28 01:30:31;;;;;;;3.80;2.13;;;;;;;;;;5055786;28;20192;-50
2023/12/28 01:32:57;;;;;;;3.63;2.30;;;;;;;;;;5055220;28;20662;-48
2023/12/28 01:35:23;;;;;;;2.57;2.10;;;;;;;;;;5051897;28;20210;-50
2023/12/28 01:37:49;;;;;;;3.23;2.07;;;;;;;;;;5053751;28;20199;-50
2023/12/28 01:40:17;;;;;;;4.37;2.33;;;;;;;;;;5055593;28;20222;-53
2023/12/28 01:42:45;;;;;;;2.60;2.13;;;;;;;;;;5055765;28;20199;-50
2023/12/28 01:45:11;;;;;;;2.97;1.93;;;;;;;;;;5055501;28;20678;-49
2023/12/28 01:47:37;;;;;;;4.37;2.20;;;;;;;;;;5055345;28;20262;-50
2023/12/28 01:50:06;;;;;;;4.17;2.57;;;;;;;;;;5055252;28;20207;-49
2023/12/28 01:52:32;;;;;;;3.53;2.27;;;;;;;;;;5055506;28;20202;-50
2023/12/28 01:54:58;;;;;;;3.30;2.57;;;;;;;;;;5055413;28;20228;-50
2023/12/28 01:57:25;;;;;;;4.00;2.30;;;;;;;;;;5055247;28;20670;-49
2023/12/28 01:59:52;;;;;;;2.20;2.00;;;;;;;;;;5055172;28;20196;-49
2023/12/28 02:02:18;;;;;;;2.50;2.30;;;;;;;;;;5054969;28;20204;-49
2023/12/28 02:04:45;;;;;;;3.03;2.30;;;;;;;;;;5055263;28;20192;-50
2023/12/28 02:07:11;;;;;;;3.13;2.50;;;;;;;;;;5055042;28;20196;-51
2023/12/28 02:09:37;;;;;;;2.43;2.10;;;;;;;;;;5055161;28;20242;-51
2023/12/28 02:12:04;;;;;;;3.77;2.47;;;;;;;;;;5054952;28;20208;-50
2023/12/28 02:14:30;;;;;;;3.63;2.43;;;;;;;;;;5054851;28;20642;-51
2023/12/28 02:17:01;;;;;;;3.13;2.30;;;;;;;;;;5054891;28;20469;-50
2023/12/28 02:19:32;;;;;;;3.90;2.30;;;;;;;;;;5055078;28;20204;-51
2023/12/28 02:21:59;;;;;;;2.40;2.20;;;;;;;;;;5054951;28;20200;-51
2023/12/28 02:24:25;;;;;;;2.70;2.33;;;;;;;;;;5054720;28;20650;-51
2023/12/28 02:26:53;;;;;;;5.53;2.43;;;;;;;;;;5054716;28;20202;-52
2023/12/28 02:29:19;;;;;;;3.17;2.70;;;;;;;;;;5054624;28;20258;-51
2023/12/28 02:31:50;;;;;;;3.40;2.50;;;;;;;;;;5054693;28;20188;-52
2023/12/28 02:34:19;;;;;;;4.87;2.70;;;;;;;;;;5054619;28;20263;-51
2023/12/28 02:36:46;;;;;;;2.33;2.13;;;;;;;;;;5054701;28;20204;-51
2023/12/28 02:39:13;;;;;;;2.77;2.57;;;;;;;;;;5054418;28;20204;-51
2023/12/28 02:41:39;;;;;;;3.97;2.57;;;;;;;;;;5054536;28;20196;-51
2023/12/28 02:44:06;;;;;;;5.20;2.80;;;;;;;;;;5054308;28;20223;-51
2023/12/28 02:46:32;;;;;;;3.00;2.70;;;;;;;;;;5054356;28;20244;-51
2023/12/28 02:48:59;;;;;;;5.00;2.93;;;;;;;;;;5054452;28;20279;-51
2023/12/28 02:51:25;;;;;;;5.57;2.87;;;;;;;;;;5054240;28;20200;-51
2023/12/28 02:53:51;;;;;;;3.03;2.53;;;;;;;;;;5054251;28;20228;-51
2023/12/28 02:56:17;;;;;;;3.10;2.83;;;;;;;;;;5054179;28;20292;-51
2023/12/28 02:58:43;;;;;;;4.10;3.10;;;;;;;;;;5054306;28;20200;-51
2023/12/28 03:01:10;;;;;;;4.20;3.07;;;;;;;;;;5053997;28;20246;-52
2023/12/28 03:03:37;;;;;;;5.60;2.90;;;;;;;;;;5054199;28;20250;-51
2023/12/28 03:06:03;;;;;;;3.73;2.90;;;;;;;;;;5052786;28;20359;-51
2023/12/28 03:08:29;;;;;;;3.20;2.90;;;;;;;;;;5054042;28;20261;-51
2023/12/28 03:10:55;;;;;;;4.10;3.10;;;;;;;;;;5053876;28;20194;-50
2023/12/28 03:13:21;;;;;;;4.50;3.33;;;;;;;;;;5053845;28;20251;-51
2023/12/28 03:15:47;;;;;;;3.10;2.80;;;;;;;;;;5053837;28;20235;-51
2023/12/28 03:18:14;;;;;;;4.83;3.10;;;;;;;;;;5053793;28;20295;-51
2023/12/28 03:20:40;;;;;;;3.63;2.50;;;;;;;;;;5053629;28;20667;-51
2023/12/28 03:23:06;;;;;;;4.73;3.00;;;;;;;;;;5053527;28;20676;-51
2023/12/28 03:25:32;;;;;;;4.33;2.73;;;;;;;;;;5053783;28;20196;-51
2023/12/28 03:27:58;;;;;;;3.97;2.83;;;;;;;;;;5053721;28;20238;-51
2023/12/28 03:30:24;;;;;;;4.53;2.90;;;;;;;;;;5053527;28;20204;-51
2023/12/28 03:32:50;;;;;;;4.63;3.40;;;;;;;;;;5053381;28;20196;-52
2023/12/28 03:35:17;;;;;;;4.60;2.73;;;;;;;;;;5053494;28;20192;-51
2023/12/28 03:37:43;;;;;;;5.23;2.90;;;;;;;;;;5053514;28;20208;-51
2023/12/28 03:40:10;;;;;;;3.27;2.53;;;;;;;;;;5053402;28;20200;-51
2023/12/28 03:42:38;;;;;;;5.90;2.80;;;;;;;;;;5053308;28;20594;-51
2023/12/28 03:45:04;;;;;;;3.47;3.17;;;;;;;;;;5053267;28;20196;-51
2023/12/28 03:47:30;;;;;;;4.00;3.00;;;;;;;;;;5053156;28;20259;-51
2023/12/28 03:49:57;;;;;;;3.30;3.00;;;;;;;;;;5053319;28;20662;-51
2023/12/28 03:52:26;;;;;;;3.00;2.70;;;;;;;;;;5043874;28;20281;-51
2023/12/28 03:54:52;;;;;;;3.27;2.97;;;;;;;;;;5044184;28;20259;-51
2023/12/28 03:57:18;;;;;;;6.57;2.83;;;;;;;;;;5039131;28;20232;-52
2023/12/28 03:59:44;;;;;;;4.50;3.03;;;;;;;;;;5040939;28;20275;-51
2023/12/28 04:02:10;;;;;;;4.13;2.70;;;;;;;;;;5038990;28;20200;-51
2023/12/28 04:04:36;;;;;;;4.67;3.00;;;;;;;;;;5042565;28;20590;-52
2023/12/28 04:07:02;;;;;;;4.00;2.97;;;;;;;;;;5039096;28;20282;-51
2023/12/28 04:09:29;;;;;;;3.67;2.67;;;;;;;;;;5041827;28;20204;-51
2023/12/28 04:11:55;;;;;;;3.40;2.93;;;;;;;;;;5042128;28;20211;-52
2023/12/28 04:14:21;;;;;;;4.07;2.60;;;;;;;;;;5038780;28;20223;-51
2023/12/28 04:16:47;;;;;;;3.73;2.87;;;;;;;;;;5038712;28;20222;-50
2023/12/28 04:19:14;;;;;;;5.20;2.80;;;;;;;;;;5040627;28;20204;-50
2023/12/28 04:21:42;;;;;;;3.07;2.40;;;;;;;;;;5038672;28;20291;-51
2023/12/28 04:24:08;;;;;;;4.00;2.70;;;;;;;;;;5040409;28;20200;-50
2023/12/28 04:26:36;;;;;;;3.67;2.60;;;;;;;;;;5040317;28;20197;-51
2023/12/28 04:29:02;;;;;;;4.67;2.70;;;;;;;;;;5041664;28;20567;-51
2023/12/28 04:31:28;;;;;;;2.80;2.60;;;;;;;;;;5038398;28;20210;-50
2023/12/28 04:33:54;;;;;;;5.33;2.50;;;;;;;;;;5039956;28;20224;-51
2023/12/28 04:36:20;;;;;;;3.60;2.73;;;;;;;;;;5039959;28;20606;-51
2023/12/28 04:38:46;;;;;;;5.90;2.93;;;;;;;;;;5040005;28;20200;-50
2023/12/28 04:41:12;;;;;;;3.97;2.70;;;;;;;;;;5038484;28;20851;-51
2023/12/28 04:43:40;;;;;;;3.00;2.43;;;;;;;;;;5040999;28;20227;-52
2023/12/28 04:46:06;;;;;;;4.53;2.70;;;;;;;;;;5039616;28;20443;-50
2023/12/28 04:48:32;;;;;;;3.67;2.77;;;;;;;;;;5038374;28;20710;-51
2023/12/28 04:50:58;;;;;;;5.33;2.93;;;;;;;;;;5040193;28;20290;-50
2023/12/28 04:53:24;;;;;;;5.60;2.80;;;;;;;;;;5038116;28;20423;-50
2023/12/28 04:55:50;;;;;;;5.80;2.83;;;;;;;;;;5040177;28;20196;-50
2023/12/28 04:58:16;;;;;;;4.63;3.00;;;;;;;;;;5040154;28;20615;-51
2023/12/28 05:00:43;;;;;;;2.97;2.60;;;;;;;;;;5038271;28;20203;-50
2023/12/28 05:03:09;;;;;;;3.50;2.37;;;;;;;;;;5039020;28;20239;-51
2023/12/28 05:05:35;;;;;;;4.57;2.90;;;;;;;;;;5037858;28;20286;-51
2023/12/28 05:08:01;;;;;;;5.20;3.20;;;;;;;;;;5039852;28;20201;-51
2023/12/28 05:10:27;;;;;;;2.43;2.23;;;;;;;;;;5039488;28;20214;-51
2023/12/28 05:12:53;;;;;;;4.67;2.70;;;;;;;;;;5037947;28;20192;-50
2023/12/28 05:15:19;;;;;;;4.30;2.70;;;;;;;;;;5037546;28;20232;-51
2023/12/28 05:17:47;;;;;;;7.00;2.80;;;;;;;;;;5039661;28;20954;-51
2023/12/28 05:20:13;;;;;;;5.53;2.77;;;;;;;;;;5038706;28;20203;-51
2023/12/28 05:22:39;;;;;;;4.33;2.70;;;;;;;;;;5040852;28;20227;-51
2023/12/28 05:25:05;;;;;;;3.17;2.60;;;;;;;;;;5039319;28;20539;-51
2023/12/28 05:27:31;;;;;;;3.80;2.83;;;;;;;;;;5037506;28;20661;-51
2023/12/28 05:29:57;;;;;;;3.07;2.57;;;;;;;;;;5039496;28;20658;-51
2023/12/28 05:32:23;;;;;;;3.23;2.43;;;;;;;;;;5037632;28;20196;-51
2023/12/28 05:34:50;;;;;;;4.53;2.47;;;;;;;;;;5039144;28;20227;-51
2023/12/28 05:37:16;;;;;;;4.00;2.20;;;;;;;;;;5039219;28;20296;-51
2023/12/28 05:39:42;;;;;;;3.53;2.47;;;;;;;;;;5039385;28;20291;-51
2023/12/28 05:42:08;;;;;;;3.17;2.40;;;;;;;;;;5037386;28;20576;-51
2023/12/28 05:44:34;;;;;;;3.80;2.37;;;;;;;;;;5041098;28;20230;-50
2023/12/28 05:47:00;;;;;;;5.40;2.60;;;;;;;;;;5040550;28;20232;-51
2023/12/28 05:49:28;;;;;;;3.63;2.40;;;;;;;;;;5040831;28;20192;-51
2023/12/28 05:51:55;;;;;;;3.20;2.30;;;;;;;;;;5037669;28;20617;-51
2023/12/28 05:54:21;;;;;;;3.10;2.47;;;;;;;;;;5040820;28;20224;-52
2023/12/28 05:56:47;;;;;;;6.83;2.60;;;;;;;;;;5039508;28;20206;-51
2023/12/28 05:59:13;;;;;;;2.93;2.20;;;;;;;;;;5039405;28;20204;-51
2023/12/28 06:01:43;;;;;;;2.87;2.50;;;;;;;;;;5041177;28;20638;-52
2023/12/28 06:04:09;;;;;;;3.63;2.20;;;;;;;;;;5038601;28;20192;-52
2023/12/28 06:06:36;;;;;;;3.10;2.43;;;;;;;;;;5039055;28;20677;-51
2023/12/28 06:09:03;;;;;;;4.00;2.60;;;;;;;;;;5040861;28;20275;-52
2023/12/28 06:11:30;;;;;;;4.93;2.70;;;;;;;;;;5039906;28;20204;-52
2023/12/28 06:13:56;;;;;;;3.37;2.27;;;;;;;;;;5040338;28;20595;-52
2023/12/28 06:16:22;;;;;;;10.80;4.83;;;;;;;;;;5043204;28;20227;-52
2023/12/28 06:18:48;;;;;;;6.40;3.23;;;;;;;;;;5042895;28;20572;-51
2023/12/28 06:21:14;;;;;;;5.23;2.67;;;;;;;;;;5042561;28;20188;-52
2023/12/28 06:23:40;;;;;;;3.60;2.23;;;;;;;;;;5045648;28;20200;-51
2023/12/28 06:26:08;;;;;;;4.37;2.33;;;;;;;;;;5042927;28;20692;-51
2023/12/28 06:28:34;;;;;;;3.40;2.70;;;;;;;;;;5042348;28;20211;-51
2023/12/28 06:31:00;;;;;;;5.97;2.57;;;;;;;;;;5043811;28;20761;-52
2023/12/28 06:33:27;;;;;;;4.73;2.63;;;;;;;;;;5042438;28;20228;-52
2023/12/28 06:35:53;;;;;;;4.10;2.30;;;;;;;;;;5042579;28;20239;-51
2023/12/28 06:38:19;;;;;;;5.23;2.50;;;;;;;;;;5042495;28;20219;-52
2023/12/28 06:40:45;;;;;;;3.47;2.63;;;;;;;;;;5041013;28;20680;-52
2023/12/28 06:43:12;;;;;;;3.07;2.37;;;;;;;;;;5040779;28;20204;-51
2023/12/28 06:45:38;;;;;;;3.70;2.00;;;;;;;;;;5041787;28;20203;-52
2023/12/28 06:48:05;;;;;;;4.20;2.60;;;;;;;;;;5043337;28;20262;-52
2023/12/28 06:50:31;;;;;;;3.97;2.30;;;;;;;;;;5042117;28;20200;-51
2023/12/28 06:52:57;;;;;;;5.10;2.43;;;;;;;;;;5044012;28;20654;-52
2023/12/28 06:55:23;;;;;;;2.90;2.27;;;;;;;;;;5042065;28;20224;-52
2023/12/28 06:57:49;;;;;;;3.00;2.50;;;;;;;;;;5042003;28;20742;-52
2023/12/28 07:00:17;;;;;;;7.63;2.53;;;;;;;;;;5042075;28;20196;-52
2023/12/28 07:02:43;;;;;;;5.00;2.53;;;;;;;;;;5042120;28;20204;-52
2023/12/28 07:05:09;;;;;;;4.13;2.53;;;;;;;;;;5042862;28;20207;-52
2023/12/28 07:07:36;;;;;;;4.70;2.50;;;;;;;;;;5043018;28;20568;-52
2023/12/28 07:10:03;;;;;;;4.07;2.50;;;;;;;;;;5043655;28;20200;-52
2023/12/28 07:12:29;;;;;;;4.47;2.27;;;;;;;;;;5042600;28;20618;-53
2023/12/28 07:14:55;;;;;;;5.80;2.93;;;;;;;;;;5042737;28;20716;-52
2023/12/28 07:17:22;;;;;;;2.80;2.23;;;;;;;;;;5043034;28;20216;-53
2023/12/28 07:19:48;;;;;;;5.90;2.70;;;;;;;;;;5041696;28;20212;-52
2023/12/28 07:22:14;;;;;;;6.43;2.40;;;;;;;;;;5041763;28;20204;-52
2023/12/28 07:24:40;;;;;;;5.73;2.20;;;;;;;;;;5041633;28;20593;-52
2023/12/28 07:27:06;;;;;;;4.57;2.00;;;;;;;;;;5042314;28;20197;-53
2023/12/28 07:29:32;;;;;;;4.50;3.17;;;;;;;;;;5041452;28;20215;-52
2023/12/28 07:31:58;;;;;;;3.70;2.50;;;;;;;;;;5043099;28;20254;-52
2023/12/28 07:34:25;;;;;;;5.67;2.97;;;;;;;;;;5042555;28;20258;-53
2023/12/28 07:36:51;;;;;;;2.93;2.30;;;;;;;;;;5041263;28;20204;-53
2023/12/28 07:39:17;;;;;;;3.70;2.30;;;;;;;;;;5039635;28;20662;-53
2023/12/28 07:41:43;;;;;;;4.37;1.93;;;;;;;;;;5039642;28;20258;-53
2023/12/28 07:44:09;;;;;;;4.13;2.30;;;;;;;;;;5041974;28;20265;-53
2023/12/28 07:46:35;;;;;;;5.30;2.40;;;;;;;;;;5043790;28;20267;-53
2023/12/28 07:49:01;;;;;;;4.50;2.00;;;;;;;;;;5041191;28;20232;-52
2023/12/28 07:51:29;;;;;;;6.13;2.27;;;;;;;;;;5039051;28;20245;-52
2023/12/28 07:53:55;;;;;;;4.53;2.07;;;;;;;;;;5040879;28;20256;-52
2023/12/28 07:56:21;;;;;;;6.60;2.37;;;;;;;;;;5039208;28;20304;-52
2023/12/28 07:58:47;;;;;;;3.77;2.07;;;;;;;;;;5042615;28;20219;-53
2023/12/28 08:01:13;;;;;;;3.53;2.07;;;;;;;;;;5041167;28;20654;-52
2023/12/28 08:03:39;;;;;;;3.27;1.93;;;;;;;;;;5042416;28;20192;-52
2023/12/28 08:06:05;;;;;;;6.70;2.43;;;;;;;;;;5039049;28;20218;-52
2023/12/28 08:08:32;;;;;;;3.67;1.93;;;;;;;;;;5050664;28;20258;-52
2023/12/28 08:10:58;;;;;;;4.83;2.33;;;;;;;;;;5052829;28;20204;-53
2023/12/28 08:13:24;;;;;;;5.90;2.40;;;;;;;;;;5052375;28;20242;-53
2023/12/28 08:15:50;;;;;;;5.27;2.47;;;;;;;;;;5052428;28;20650;-53
2023/12/28 08:18:16;;;;;;;3.63;1.90;;;;;;;;;;5052441;28;20247;-53
2023/12/28 08:20:42;;;;;;;4.70;1.93;;;;;;;;;;5052142;28;20224;-53
2023/12/28 08:23:08;;;;;;;5.37;2.30;;;;;;;;;;5052560;28;20854;-53
2023/12/28 08:25:36;;;;;;;3.47;2.27;;;;;;;;;;5052175;28;20192;-53
2023/12/28 08:28:02;;;;;;;3.20;2.30;;;;;;;;;;5052392;28;20214;-53
2023/12/28 08:30:28;;;;;;;5.37;2.10;;;;;;;;;;5052422;28;20196;-53
2023/12/28 08:32:54;;;;;;;4.23;2.10;;;;;;;;;;5052500;28;20728;-53
2023/12/28 08:35:20;;;;;;;6.10;2.63;;;;;;;;;;5052070;28;20227;-53
2023/12/28 08:37:45;;;;;;;3.90;2.40;;;;;;;;;;5052241;28;20215;-53
2023/12/28 08:40:12;;;;;;;3.87;2.10;;;;;;;;;;5052327;28;20200;-53
2023/12/28 08:42:39;;;;;;;3.33;2.20;;;;;;;;;;5052086;28;20238;-53
2023/12/28 08:45:06;;;;;;;3.50;2.10;;;;;;;;;;5052045;28;20211;-54
2023/12/28 08:47:32;;;;;;;6.63;2.33;;;;;;;;;;5051900;28;20709;-51
2023/12/28 08:49:58;;;;;;;5.63;2.03;;;;;;;;;;5052389;28;20249;-50
2023/12/28 08:52:24;;;;;;;5.07;1.93;;;;;;;;;;5051954;28;20228;-50
2023/12/28 08:54:50;;;;;;;5.90;2.33;;;;;;;;;;5051823;28;20315;-52
2023/12/28 08:57:15;;;;;;;5.13;2.23;;;;;;;;;;5052117;28;20282;-52
2023/12/28 08:59:43;;;;;;;3.80;1.80;;;;;;;;;;5051795;28;20544;-52
2023/12/28 09:02:09;;;;;;;4.20;1.93;;;;;;;;;;5051766;28;20208;-52
2023/12/28 09:04:35;;;;;;;4.00;2.00;;;;;;;;;;5051704;28;20188;-51
2023/12/28 09:07:02;;;;;;;7.60;2.97;;;;;;;;;;5051976;28;20713;-50
2023/12/28 09:09:28;;;;;;;7.13;3.00;;;;;;;;;;5051768;28;20208;-50
2023/12/28 09:11:54;;;;;;;4.20;2.53;;;;;;;;;;5051743;28;20200;-49
2023/12/28 09:14:20;;;;;;;4.20;2.33;;;;;;;;;;5051686;28;20564;-49
2023/12/28 09:16:48;;;;;;;4.00;2.30;;;;;;;;;;5051597;28;20220;-50
2023/12/28 09:19:14;;;;;;;3.10;2.20;;;;;;;;;;5051838;28;20208;-50
2023/12/28 09:21:41;;;;;;;3.87;2.30;;;;;;;;;;5051362;28;20196;-49
2023/12/28 09:24:07;;;;;;;4.20;1.80;;;;;;;;;;5051826;28;20231;-49
2023/12/28 09:26:33;;;;;;;2.60;1.70;;;;;;;;;;5051624;28;20200;-50
2023/12/28 09:28:59;;;;;;;3.70;1.73;;;;;;;;;;5051763;28;20200;-50
2023/12/28 09:31:25;;;;;;;4.57;2.00;;;;;;;;;;5051433;28;20275;-50
2023/12/28 09:33:52;;;;;;;5.23;2.17;;;;;;;;;;5051431;28;20230;-49
2023/12/28 09:36:18;;;;;;;7.23;1.83;;;;;;;;;;5051520;28;20254;-50
2023/12/28 09:38:45;;;;;;;3.27;2.20;;;;;;;;;;5051722;28;20189;-50
2023/12/28 09:41:14;;;;;;;7.07;2.47;;;;;;;;;;5051372;28;20200;-49
2023/12/28 09:43:46;;;;;;;7.97;2.37;;;;;;;;;;5051228;28;20204;-50
2023/12/28 09:46:13;;;;;;;3.93;1.90;;;;;;;;;;5051364;28;20322;-50
2023/12/28 09:48:39;;;;;;;4.73;1.90;;;;;;;;;;5051328;28;20207;-50
2023/12/28 09:51:06;;;;;;;4.27;2.00;;;;;;;;;;5054622;28;20192;-49
2023/12/28 09:53:33;;;;;;;6.77;2.53;;;;;;;;;;5055214;28;20222;-49
2023/12/28 09:55:59;;;;;;;4.90;2.37;;;;;;;;;;5055520;28;20228;-51
2023/12/28 09:58:27;;;;;;;5.80;2.67;;;;;;;;;;5055041;28;20200;-51
2023/12/28 10:00:53;;;;;;;7.17;2.13;;;;;;;;;;5054919;28;20212;-50
2023/12/28 10:03:20;;;;;;;6.47;2.57;;;;;;;;;;5054977;28;20262;-51
2023/12/28 10:05:46;;;;;;;6.70;2.20;;;;;;;;;;5055162;28;20650;-50
2023/12/28 10:08:14;;;;;;;4.13;1.90;;;;;;;;;;5055264;28;20671;-49
2023/12/28 10:10:40;;;;;;;3.73;2.07;;;;;;;;;;5055068;28;20205;-50
2023/12/28 10:13:07;;;;;;;4.03;1.97;;;;;;;;;;5055180;28;20196;-50
2023/12/28 10:15:33;;;;;;;5.63;2.23;;;;;;;;;;5054896;28;20220;-50
2023/12/28 10:17:59;;;;;;;3.33;1.93;;;;;;;;;;5055044;28;20577;-50
2023/12/28 10:20:26;;;;;;;7.60;2.10;;;;;;;;;;5054948;28;20262;-49
2023/12/28 10:22:53;;;;;;;5.77;2.23;;;;;;;;;;5055038;28;20200;-50
2023/12/28 10:25:20;;;;;;;6.17;2.33;;;;;;;;;;5054840;28;20192;-51
2023/12/28 10:27:46;;;;;;;6.90;2.93;;;;;;;;;;5054735;28;20203;-50
2023/12/28 10:30:12;;;;;;;6.17;2.57;;;;;;;;;;5054862;28;20249;-49
2023/12/28 10:32:40;;;;;;;5.10;2.17;;;;;;;;;;5054663;28;20542;-49
2023/12/28 10:35:09;;;;;;;5.73;2.40;;;;;;;;;;5054484;28;20792;-50
2023/12/28 10:37:36;;;;;;;6.00;2.20;;;;;;;;;;5047452;28;20204;-49
2023/12/28 10:40:04;;;;;;;5.50;2.10;;;;;;;;;;5044052;28;20204;-51
2023/12/28 10:42:32;;;;;;;5.83;2.10;;;;;;;;;;5043638;28;20200;-50
2023/12/28 10:45:03;;;;;;;6.10;2.37;;;;;;;;;;5043677;28;20197;-50
2023/12/28 10:47:30;;;;;;;7.30;2.47;;;;;;;;;;5040063;28;20899;-50
2023/12/28 10:49:58;;;;;;;4.10;2.00;;;;;;;;;;5043601;28;20230;-50
2023/12/28 10:52:26;;;;;;;5.90;2.40;;;;;;;;;;5043813;28;20663;-50
2023/12/28 10:54:57;;;;;;;4.37;2.00;;;;;;;;;;5041746;28;20216;-50
2023/12/28 10:57:27;;;;;;;6.67;2.70;;;;;;;;;;5041444;28;20275;-50
2023/12/28 10:59:59;;;;;;;6.63;2.37;;;;;;;;;;5041788;28;20249;-50
2023/12/28 11:02:28;;;;;;;9.97;2.53;;;;;;;;;;5042427;28;20303;-50
2023/12/28 11:04:55;;;;;;;7.40;2.43;;;;;;;;;;5043369;28;20287;-50
2023/12/28 11:07:21;;;;;;;7.83;3.00;;;;;;;;;;5041292;28;20200;-49
2023/12/28 11:09:48;;;;;;;9.93;2.67;;;;;;;;;;5041741;28;20299;-50
2023/12/28 11:12:18;;;;;;;5.87;2.60;;;;;;;;;;5041535;28;20680;-50
2023/12/28 11:14:45;;;;;;;7.27;2.97;;;;;;;;;;5044175;28;20228;-50
2023/12/28 11:17:14;;;;;;;4.43;2.20;;;;;;;;;;5043109;28;20216;-50
2023/12/28 11:19:41;;;;;;;9.20;2.80;;;;;;;;;;5040163;28;20208;-51
2023/12/28 11:22:07;;;;;;;9.07;2.40;;;;;;;;;;5043339;28;20251;-50
2023/12/28 11:24:34;;;;;;;5.30;2.37;;;;;;;;;;5040985;28;21049;-50
2023/12/28 11:27:01;;;;;;;10.33;2.83;;;;;;;;;;5046410;28;20202;-50
2023/12/28 11:29:31;;;;;;;4.53;2.60;;;;;;;;;;5041322;28;20207;-51
2023/12/28 11:31:58;;;;;;;8.50;2.67;;;;;;;;;;5044754;28;20262;-50
2023/12/28 11:34:28;;;;;;;10.53;2.70;;;;;;;;;;5041101;28;20251;-51
2023/12/28 11:36:55;;;;;;;6.40;2.20;;;;;;;;;;5043165;28;20258;-50
2023/12/28 11:39:25;;;;;;;5.40;2.20;;;;;;;;;;5041432;28;20197;-51
2023/12/28 11:41:51;;;;;;;6.97;2.53;;;;;;;;;;5046047;28;20196;-50
2023/12/28 11:44:17;;;;;;;8.87;2.80;;;;;;;;;;5040887;28;20207;-50
2023/12/28 11:46:43;;;;;;;6.27;2.37;;;;;;;;;;5040827;28;20228;-50
2023/12/28 11:49:09;;;;;;;5.70;2.20;;;;;;;;;;5042313;28;20211;-50
2023/12/28 11:51:38;;;;;;;7.23;2.33;;;;;;;;;;5042519;28;20188;-50
2023/12/28 11:54:05;;;;;;;5.40;2.40;;;;;;;;;;5039745;28;20319;-50
2023/12/28 11:56:32;;;;;;;9.00;2.63;;;;;;;;;;5042815;28;20224;-50
2023/12/28 11:58:58;;;;;;;5.60;2.10;;;;;;;;;;5053411;28;20278;-50
2023/12/28 12:01:24;;;;;;;7.40;2.10;;;;;;;;;;5059349;28;20203;-49
2023/12/28 12:03:50;;;;;;;8.57;2.70;;;;;;;;;;5027188;28;20201;-50
2023/12/28 12:06:16;;;;;;;8.57;2.60;;;;;;;;;;5028659;28;20246;-50
2023/12/28 12:08:49;;;;;;;9.20;2.53;;;;;;;;;;5043192;28;20212;-50
2023/12/28 12:11:17;;;;;;;5.70;2.27;;;;;;;;;;5050441;28;20242;-50
2023/12/28 12:13:43;;;;;;;7.70;2.80;;;;;;;;;;5042053;28;20228;-50
2023/12/28 12:16:09;;;;;;;7.20;2.70;;;;;;;;;;5041553;28;20234;-51
2023/12/28 12:18:36;;;;;;;5.37;2.10;;;;;;;;;;5059702;28;20207;-51
2023/12/28 12:21:02;;;;;;;6.87;2.60;;;;;;;;;;5046061;28;20210;-49
2023/12/28 12:23:28;;;;;;;7.30;2.50;;;;;;;;;;5043436;28;20668;-50
2023/12/28 12:25:56;;;;;;;5.73;2.57;;;;;;;;;;5031033;28;20218;-50
2023/12/28 12:28:22;;;;;;;5.77;2.33;;;;;;;;;;5039773;28;20212;-51
2023/12/28 12:30:53;;;;;;;8.67;3.27;;;;;;;;;;5040070;28;20200;-50
2023/12/28 12:33:19;;;;;;;7.83;2.80;;;;;;;;;;5042875;28;20223;-50
2023/12/28 12:35:45;;;;;;;6.93;2.50;;;;;;;;;;5042953;28;20243;-50
2023/12/28 12:38:11;;;;;;;10.33;2.90;;;;;;;;;;5059416;28;20196;-49
2023/12/28 12:40:37;;;;;;;8.20;2.70;;;;;;;;;;5058171;28;20235;-50
2023/12/28 12:43:08;;;;;;;6.90;2.40;;;;;;;;;;5058802;28;20716;-50
2023/12/28 12:45:35;;;;;;;8.30;2.80;;;;;;;;;;5056884;28;20200;-49
2023/12/28 12:48:02;;;;;;;8.47;2.77;;;;;;;;;;5060946;28;20242;-49
2023/12/28 12:50:28;;;;;;;6.10;2.57;;;;;;;;;;5059787;28;20195;-50
2023/12/28 12:52:55;;;;;;;5.20;2.87;;;;;;;;;;5057988;28;20215;-49
2023/12/28 12:55:22;;;;;;;7.13;2.67;;;;;;;;;;5059289;28;20590;-49
2023/12/28 12:57:48;;;;;;;9.07;3.07;;;;;;;;;;5057828;28;20238;-50
2023/12/28 13:00:16;;;;;;;6.47;2.67;;;;;;;;;;5045680;28;20227;-50
2023/12/28 13:02:42;;;;;;;8.83;2.97;;;;;;;;;;5034806;28;20208;-50
2023/12/28 13:05:08;;;;;;;7.30;2.77;;;;;;;;;;5041920;28;20192;-49
2023/12/28 13:07:34;;;;;;;7.40;2.87;;;;;;;;;;5038885;28;20200;-50
2023/12/28 13:10:00;;;;;;;11.10;3.23;;;;;;;;;;5035532;28;20211;-50
2023/12/28 13:12:26;;;;;;;10.33;2.90;;;;;;;;;;5039103;28;20192;-50
2023/12/28 13:14:52;;;;;;;11.07;2.40;;;;;;;;;;5036910;28;20224;-49
2023/12/28 13:17:20;;;;;;;7.80;2.27;;;;;;;;;;5057646;28;20667;-51
2023/12/28 13:19:46;;;;;;;8.03;2.83;;;;;;;;;;5043958;28;20554;-50
2023/12/28 13:22:12;;;;;;;6.90;2.40;;;;;;;;;;5038986;28;20578;-50
2023/12/28 13:24:38;;;;;;;7.13;2.50;;;;;;;;;;5039239;28;20204;-51
2023/12/28 13:27:04;;;;;;;6.50;2.20;;;;;;;;;;5038803;28;20200;-50
2023/12/28 13:29:30;;;;;;;6.53;2.87;;;;;;;;;;5040817;28;20275;-50
2023/12/28 13:31:57;;;;;;;7.70;2.50;;;;;;;;;;5041083;28;20569;-50
2023/12/28 13:34:25;;;;;;;7.13;2.60;;;;;;;;;;5040572;28;20314;-49
2023/12/28 13:36:51;;;;;;;7.30;2.80;;;;;;;;;;5040781;28;20201;-50
2023/12/28 13:39:17;;;;;;;8.00;3.33;;;;;;;;;;5038773;28;20204;-50
2023/12/28 13:41:43;;;;;;;7.87;2.40;;;;;;;;;;5041136;28;20223;-50
2023/12/28 13:44:12;;;;;;;8.33;2.60;;;;;;;;;;5060145;28;20658;-50
2023/12/28 13:46:38;;;;;;;5.73;2.60;;;;;;;;;;5057654;28;20805;-52
2023/12/28 13:49:04;;;;;;;7.83;2.70;;;;;;;;;;5060869;28;20226;-51
2023/12/28 13:51:31;;;;;;;8.97;2.60;;;;;;;;;;5060669;28;20203;-50
2023/12/28 13:53:57;;;;;;;7.53;2.67;;;;;;;;;;5058047;28;20196;-50
2023/12/28 13:56:23;;;;;;;8.47;2.60;;;;;;;;;;5056609;28;20306;-49
2023/12/28 13:58:50;;;;;;;5.90;2.70;;;;;;;;;;5059277;28;20203;-50
2023/12/28 14:01:16;;;;;;;7.23;2.10;;;;;;;;;;5057655;28;20257;-50
2023/12/28 14:03:42;;;;;;;5.90;2.47;;;;;;;;;;5060679;28;20199;-50
2023/12/28 14:06:08;;;;;;;12.23;2.80;;;;;;;;;;5058955;28;20564;-50
2023/12/28 14:08:36;;;;;;;8.40;2.63;;;;;;;;;;5058625;28;20214;-49
2023/12/28 14:11:02;;;;;;;7.90;2.60;;;;;;;;;;5058752;28;20261;-49
2023/12/28 14:13:28;;;;;;;7.30;2.20;;;;;;;;;;5059921;28;20199;-50
2023/12/28 14:15:54;;;;;;;6.37;2.63;;;;;;;;;;5058463;28;20628;-49
2023/12/28 14:18:20;;;;;;;7.70;2.50;;;;;;;;;;5046176;28;20229;-53
2023/12/28 14:20:46;;;;;;;9.80;3.07;;;;;;;;;;5039847;28;20684;-50
2023/12/28 14:23:13;;;;;;;8.30;2.47;;;;;;;;;;5058611;28;20200;-51
2023/12/28 14:25:40;;;;;;;7.30;2.33;;;;;;;;;;5061983;28;20210;-50
2023/12/28 14:28:07;;;;;;;10.80;2.53;;;;;;;;;;5063075;28;20210;-51
2023/12/28 14:30:33;;;;;;;9.83;2.83;;;;;;;;;;5061801;28;20196;-51
2023/12/28 14:32:59;;;;;;;7.07;2.60;;;;;;;;;;5057560;28;20206;-50
2023/12/28 14:35:25;;;;;;;8.20;2.80;;;;;;;;;;5062083;28;20259;-50
2023/12/28 14:37:51;;;;;;;7.20;2.30;;;;;;;;;;5061834;28;20681;-51